createdAt,value
2023-03-14T00:02:03.930Z,119.36
2023-03-14T00:06:04.004Z,120.21
2023-03-14T00:10:03.905Z,120.19
2023-03-14T00:14:03.971Z,120.64
2023-03-14T00:18:03.984Z,119.84
2023-03-14T00:22:03.956Z,118.12
2023-03-14T00:26:03.974Z,119.65
2023-03-14T00:30:04.008Z,120.16
2023-03-14T00:34:03.997Z,119.42
2023-03-14T00:38:03.979Z,121.10
2023-03-14T00:42:04.042Z,119.56
2023-03-14T00:46:04.055Z,118.36
2023-03-14T00:50:04.092Z,118.54
2023-03-14T00:54:04.132Z,120.84
2023-03-14T00:58:04.158Z,120.68
2023-03-14T01:02:04.306Z,119.62
2023-03-14T01:06:04.276Z,119.80
2023-03-14T01:10:04.304Z,120.72
2023-03-14T01:14:04.371Z,120.75
2023-03-14T01:18:04.362Z,120.60
2023-03-14T01:22:04.391Z,120.51
2023-03-14T01:26:04.465Z,121.24
2023-03-14T01:30:04.631Z,120.41
2023-03-14T01:34:04.549Z,121.29
2023-03-14T01:38:04.635Z,120.37
2023-03-14T01:42:04.713Z,120.20
2023-03-14T01:46:04.807Z,120.44
2023-03-14T01:50:04.786Z,120.72
2023-03-14T01:54:04.968Z,120.38
2023-03-14T01:58:05.035Z,120.12
2023-03-14T02:02:04.963Z,118.61
2023-03-14T02:06:05.049Z,121.34
2023-03-14T02:10:05.125Z,118.96
2023-03-14T02:14:05.131Z,120.66
2023-03-14T02:18:05.297Z,121.12
2023-03-14T02:22:05.226Z,119.66
2023-03-14T02:26:05.254Z,119.79
2023-03-14T02:30:05.357Z,119.17
2023-03-14T02:34:05.361Z,120.02
2023-03-14T02:38:05.415Z,120.13
2023-03-14T02:42:05.438Z,119.05
2023-03-14T02:46:05.561Z,119.16
2023-03-14T02:50:05.550Z,119.37
2023-03-14T02:54:05.636Z,120.79
2023-03-14T02:58:05.671Z,119.51
2023-03-14T03:02:05.860Z,119.86
2023-03-14T03:06:05.827Z,118.51
2023-03-14T03:10:05.803Z,117.99
2023-03-14T03:14:05.887Z,118.85
2023-03-14T03:18:05.890Z,118.07
2023-03-14T03:22:06.003Z,118.19
2023-03-14T03:26:06.023Z,118.14
2023-03-14T03:30:06.105Z,118.40
2023-03-14T03:34:06.126Z,119.05
2023-03-14T03:38:06.263Z,118.89
2023-03-14T03:42:06.265Z,119.00
2023-03-14T03:46:06.391Z,119.28
2023-03-14T03:50:06.329Z,119.20
2023-03-14T03:54:06.438Z,119.06
2023-03-14T03:58:06.392Z,117.92
2023-03-14T04:02:06.449Z,117.53
2023-03-14T04:06:06.474Z,119.91
2023-03-14T04:10:06.451Z,117.17
2023-03-14T04:14:06.467Z,119.19
2023-03-14T04:18:06.492Z,117.36
2023-03-14T04:22:06.522Z,116.59
2023-03-14T04:26:06.548Z,118.31
2023-03-14T04:30:06.573Z,117.06
2023-03-14T04:34:06.591Z,116.30
2023-03-14T04:38:06.662Z,116.69
2023-03-14T04:42:06.683Z,116.84
2023-03-14T04:46:06.717Z,116.41
2023-03-14T04:50:06.776Z,114.82
2023-03-14T04:54:06.806Z,114.99
2023-03-14T04:58:06.828Z,115.61
2023-03-14T05:02:06.891Z,114.90
2023-03-14T05:06:06.922Z,108.54
2023-03-14T05:10:06.953Z,93.39
2023-03-14T05:14:06.979Z,74.27
2023-03-14T05:18:06.993Z,66.86
2023-03-14T05:22:07.116Z,42.00
2023-03-14T05:26:07.100Z,28.53
2023-03-14T05:30:07.229Z,26.45
2023-03-14T05:34:07.222Z,26.21
2023-03-14T05:38:07.354Z,30.17
2023-03-14T05:42:07.393Z,38.24
2023-03-14T05:46:07.479Z,35.07
2023-03-14T05:50:07.502Z,43.37
2023-03-14T05:54:07.584Z,44.43
2023-03-14T05:58:07.683Z,48.84
2023-03-14T06:02:07.803Z,52.10
2023-03-14T06:06:07.823Z,50.15
2023-03-14T06:10:07.911Z,55.67
2023-03-14T06:14:08.398Z,58.76
2023-03-14T06:18:08.082Z,54.99
2023-03-14T06:22:08.147Z,43.05
2023-03-14T06:26:08.277Z,42.26
2023-03-14T06:30:08.400Z,43.92
2023-03-14T06:34:08.869Z,50.80
2023-03-14T06:38:08.876Z,53.00
2023-03-14T06:42:09.011Z,61.44
2023-03-14T06:46:08.998Z,59.61
2023-03-14T06:50:09.362Z,55.00
2023-03-14T06:54:09.251Z,67.47
2023-03-14T06:58:09.245Z,72.91
2023-03-14T07:02:09.764Z,68.09
2023-03-14T07:06:09.251Z,72.74
2023-03-14T07:10:09.244Z,75.99
2023-03-14T07:14:09.215Z,78.87
2023-03-14T07:18:09.170Z,57.33
2023-03-14T07:22:09.192Z,91.09
2023-03-14T07:26:09.881Z,136.85
2023-03-14T07:30:09.222Z,96.23
2023-03-14T07:34:09.195Z,129.81
2023-03-14T07:38:09.174Z,98.42
2023-03-14T07:42:09.380Z,81.41
2023-03-14T07:46:09.113Z,100.37
2023-03-14T07:50:08.979Z,99.93
2023-03-14T07:54:08.982Z,96.72
2023-03-14T07:58:09.410Z,91.27
2023-03-14T08:02:09.185Z,88.65
2023-03-14T08:06:08.884Z,100.98
2023-03-14T08:10:08.810Z,86.49
2023-03-14T08:14:08.815Z,84.65
2023-03-14T08:18:08.735Z,77.81
2023-03-14T08:22:08.707Z,73.51
2023-03-14T08:26:08.894Z,84.00
2023-03-14T08:30:09.786Z,101.13
2023-03-14T08:34:09.365Z,59.96
2023-03-14T08:38:09.337Z,38.64
2023-03-14T08:42:09.434Z,58.70
2023-03-14T08:46:09.466Z,78.16
2023-03-14T08:50:09.458Z,88.24
2023-03-14T08:54:09.582Z,88.97
2023-03-14T08:58:09.584Z,88.08
2023-03-14T09:02:10.770Z,93.89
2023-03-14T09:06:09.542Z,87.91
2023-03-14T09:10:09.447Z,155.60
2023-03-14T09:14:09.420Z,118.25
2023-03-14T09:18:09.413Z,89.88
2023-03-14T09:22:09.366Z,130.32
2023-03-14T09:26:09.453Z,174.83
2023-03-14T09:30:09.317Z,165.97
2023-03-14T09:34:09.266Z,149.74
2023-03-14T09:38:09.185Z,111.48
2023-03-14T09:42:09.468Z,93.99
2023-03-14T09:46:09.213Z,110.80
2023-03-14T09:50:09.074Z,119.83
2023-03-14T09:54:09.170Z,122.36
2023-03-14T09:58:08.998Z,118.99
2023-03-14T10:02:08.966Z,105.05
2023-03-14T10:06:08.951Z,112.51
2023-03-14T10:10:12.651Z,104.38
2023-03-14T10:14:08.963Z,117.34
2023-03-14T10:18:08.879Z,110.53
2023-03-14T10:22:08.854Z,97.49
2023-03-14T10:26:08.835Z,97.71
2023-03-14T10:30:08.990Z,86.97
2023-03-14T10:34:08.832Z,0.00
2023-03-14T10:38:08.702Z,61.92
2023-03-14T10:42:13.748Z,94.37
2023-03-14T10:46:08.678Z,109.80
2023-03-14T10:50:11.616Z,166.74
2023-03-14T10:54:08.593Z,186.77
2023-03-14T10:58:08.553Z,195.53
2023-03-14T11:02:08.563Z,225.74
2023-03-14T11:06:08.556Z,237.85
2023-03-14T11:10:08.463Z,234.12
2023-03-14T11:14:08.480Z,234.21
2023-03-14T11:18:08.420Z,227.44
2023-03-14T11:22:08.408Z,219.62
2023-03-14T11:26:08.379Z,197.01
2023-03-14T11:30:08.590Z,235.91
2023-03-14T11:34:08.721Z,164.60
2023-03-14T11:38:08.247Z,191.08
2023-03-14T11:42:08.236Z,200.89
2023-03-14T11:46:08.206Z,198.82
2023-03-14T11:50:08.279Z,194.54
2023-03-14T11:54:08.254Z,191.07
2023-03-14T11:58:08.217Z,182.02
2023-03-14T12:02:08.236Z,190.77
2023-03-14T12:06:08.125Z,176.82
2023-03-14T12:10:08.108Z,188.01
2023-03-14T12:14:08.085Z,179.67
2023-03-14T12:18:08.052Z,178.12
2023-03-14T12:22:07.964Z,172.62
2023-03-14T12:26:07.990Z,154.86
2023-03-14T12:30:07.926Z,146.55
2023-03-14T12:34:07.877Z,136.70
2023-03-14T12:38:08.039Z,120.53
2023-03-14T12:42:08.162Z,107.62
2023-03-14T12:46:08.373Z,106.33
2023-03-14T12:50:08.454Z,98.84
2023-03-14T12:54:08.410Z,96.20
2023-03-14T12:58:08.368Z,106.86
2023-03-14T13:02:08.302Z,115.90
2023-03-14T13:06:08.384Z,130.18
2023-03-14T13:14:08.322Z,135.54
2023-03-14T13:18:08.312Z,138.18
2023-03-14T13:22:08.371Z,139.67
2023-03-14T13:26:08.409Z,136.98
2023-03-14T13:30:08.438Z,134.18
2023-03-14T13:34:08.451Z,137.35
2023-03-14T13:38:11.912Z,137.30
2023-03-14T13:42:08.306Z,138.57
2023-03-14T13:46:08.399Z,139.18
2023-03-14T13:50:08.436Z,140.00
2023-03-14T13:54:08.223Z,140.56
2023-03-14T13:58:08.291Z,142.82
2023-03-14T14:02:08.188Z,141.61
2023-03-14T14:06:08.084Z,142.58
2023-03-14T14:10:08.253Z,143.25
2023-03-14T14:14:08.025Z,143.08
2023-03-14T14:18:07.977Z,147.09
2023-03-14T14:22:08.125Z,147.20
2023-03-14T14:26:09.184Z,148.13
2023-03-14T14:30:07.970Z,149.11
2023-03-14T14:34:07.833Z,149.02
2023-03-14T14:38:08.110Z,148.84
2023-03-14T14:42:07.812Z,148.97
2023-03-14T14:46:07.831Z,148.57
2023-03-14T14:50:07.888Z,149.01
2023-03-14T14:54:08.075Z,150.68
2023-03-14T14:58:08.216Z,148.35
2023-03-14T15:02:08.383Z,147.09
2023-03-14T15:06:08.603Z,146.95
2023-03-14T15:10:08.658Z,144.16
2023-03-14T15:14:08.723Z,142.30
2023-03-14T15:18:08.889Z,142.59
2023-03-14T15:22:09.101Z,141.21
2023-03-14T15:26:09.232Z,142.46
2023-03-14T15:30:09.776Z,141.56
2023-03-14T15:34:09.422Z,141.00
2023-03-14T15:38:09.643Z,141.05
2023-03-14T15:42:09.772Z,139.69
2023-03-14T15:46:10.022Z,140.63
2023-03-14T15:50:10.093Z,140.40
2023-03-14T15:54:10.232Z,137.81
2023-03-14T15:58:10.391Z,138.21
2023-03-14T16:02:10.590Z,135.90
2023-03-14T16:06:10.756Z,136.03
2023-03-14T16:10:10.980Z,138.12
2023-03-14T16:14:11.102Z,138.06
2023-03-14T16:18:21.036Z,137.52
2023-03-14T16:22:12.250Z,138.09
2023-03-14T16:26:11.254Z,134.30
2023-03-14T16:30:11.331Z,137.58
2023-03-14T16:34:11.531Z,138.24
2023-03-14T16:38:11.770Z,137.60
2023-03-14T16:42:11.912Z,136.16
2023-03-14T16:46:12.023Z,137.23
2023-03-14T16:50:11.933Z,136.36
2023-03-14T16:54:11.870Z,135.56
2023-03-14T16:58:11.772Z,137.73
2023-03-14T17:02:11.739Z,136.06
2023-03-14T17:06:11.748Z,139.22
2023-03-14T17:10:11.641Z,139.80
2023-03-14T17:14:11.619Z,134.44
2023-03-14T17:18:11.655Z,135.38
2023-03-14T17:22:24.573Z,134.78
2023-03-14T17:26:12.642Z,135.38
2023-03-14T17:30:11.629Z,132.40
2023-03-14T17:34:11.760Z,132.78
2023-03-14T17:38:11.754Z,130.41
2023-03-14T17:42:11.685Z,132.29
2023-03-14T17:46:12.106Z,128.21
2023-03-14T17:50:11.623Z,131.84
2023-03-14T17:54:11.582Z,129.45
2023-03-14T17:58:11.587Z,129.17
2023-03-14T18:02:11.684Z,126.66
2023-03-14T18:06:11.460Z,127.77
2023-03-14T18:10:11.388Z,127.84
2023-03-14T18:14:11.380Z,130.11
2023-03-14T18:18:11.353Z,128.89
2023-03-14T18:22:11.308Z,127.33
2023-03-14T18:26:11.270Z,127.29
2023-03-14T18:30:11.277Z,128.23
2023-03-14T18:34:11.217Z,128.81
2023-03-14T18:38:11.156Z,126.08
2023-03-14T18:42:11.194Z,99.91
2023-03-14T18:46:11.107Z,81.09
2023-03-14T18:50:11.043Z,70.74
2023-03-14T18:54:11.097Z,69.61
2023-03-14T18:58:10.965Z,52.83
2023-03-14T19:02:11.026Z,52.41
2023-03-14T19:06:10.910Z,59.53
2023-03-14T19:10:10.860Z,58.39
2023-03-14T19:14:10.803Z,67.25
2023-03-14T19:18:10.828Z,70.32
2023-03-14T19:22:10.818Z,76.05
2023-03-14T19:26:10.728Z,85.97
2023-03-14T19:30:10.743Z,89.54
2023-03-14T19:34:10.602Z,96.14
2023-03-14T19:38:10.638Z,101.83
2023-03-14T19:42:10.651Z,102.50
2023-03-14T19:46:10.847Z,108.50
2023-03-14T19:50:10.773Z,111.80
2023-03-14T19:54:10.809Z,113.78
2023-03-14T19:58:10.842Z,117.26
2023-03-14T20:02:10.919Z,118.69
2023-03-14T20:06:10.920Z,119.12
2023-03-14T20:10:10.955Z,121.78
2023-03-14T20:14:11.007Z,123.41
2023-03-14T20:18:11.066Z,125.95
2023-03-14T20:22:11.102Z,125.32
2023-03-14T20:26:11.159Z,127.19
2023-03-14T20:30:11.147Z,128.41
2023-03-14T20:34:11.231Z,131.48
2023-03-14T20:38:11.220Z,132.14
2023-03-14T20:42:11.264Z,132.56
2023-03-14T20:46:11.374Z,133.74
2023-03-14T20:50:11.354Z,132.59
2023-03-14T20:54:11.416Z,131.92
2023-03-14T20:58:11.519Z,133.87
2023-03-14T21:02:11.576Z,134.80
2023-03-14T21:06:11.658Z,133.81
2023-03-14T21:10:11.734Z,133.60
2023-03-14T21:14:11.851Z,131.91
2023-03-14T21:18:11.930Z,133.75
2023-03-14T21:22:12.082Z,132.32
2023-03-14T21:26:12.106Z,133.79
2023-03-14T21:30:12.279Z,132.20
2023-03-14T21:34:12.313Z,131.23
2023-03-14T21:38:12.477Z,132.60
2023-03-14T21:42:12.505Z,131.28
2023-03-14T21:46:12.653Z,131.15
2023-03-14T21:50:12.717Z,131.12
2023-03-14T21:54:12.862Z,130.12
2023-03-14T21:58:12.968Z,130.24
2023-03-14T22:02:13.146Z,129.56
2023-03-14T22:06:13.163Z,130.63
2023-03-14T22:10:13.309Z,130.54
2023-03-14T22:14:13.420Z,131.78
2023-03-14T22:18:13.554Z,131.31
2023-03-14T22:22:13.685Z,132.63
2023-03-14T22:26:13.801Z,131.27
2023-03-14T22:30:13.925Z,130.48
2023-03-14T22:34:14.057Z,129.97
2023-03-14T22:38:14.189Z,132.95
2023-03-14T22:42:14.359Z,131.93
2023-03-14T22:46:14.468Z,132.00
2023-03-14T22:50:14.671Z,132.84
2023-03-14T22:54:14.819Z,132.45
2023-03-14T22:58:15.011Z,131.78
2023-03-14T23:02:15.139Z,133.43
2023-03-14T23:06:15.289Z,131.50
2023-03-14T23:10:15.499Z,130.35
2023-03-14T23:14:15.645Z,132.70
2023-03-14T23:18:15.769Z,131.70
2023-03-14T23:22:16.000Z,130.50
2023-03-14T23:26:16.127Z,130.91
2023-03-14T23:30:16.262Z,132.17
2023-03-14T23:34:16.436Z,132.47
2023-03-14T23:38:16.850Z,131.75
2023-03-14T23:42:16.811Z,132.26
2023-03-14T23:46:17.077Z,131.16
2023-03-14T23:50:17.179Z,131.88
2023-03-14T23:54:17.370Z,131.02
2023-03-14T23:58:17.505Z,131.86
